Time;durP1;ratioP1;P1;durP2;ratioP2;P2;SDS_P1;SDS_P2;PMS_P1;PMS_P2;Temp;Humidity;BMP_temperature;BMP_pressure;BME280_temperature;BME280_humidity;BME280_pressure;Samples;Min_cycle;Max_cycle;Signal;HPM_P1;HPM_P2
2021/10/11 00:00:06;;;;;;;18.95;6.22;;;;;;;10.50;100.00;102115.00;5055570;28;20087;-69
2021/10/11 00:02:35;;;;;;;18.48;7.60;;;;;;;10.52;100.00;102118.41;5055085;28;20478;-69
2021/10/11 00:05:04;;;;;;;20.65;7.78;;;;;;;10.53;100.00;102132.59;5054069;28;20048;-69
2021/10/11 00:07:32;;;;;;;26.17;9.50;;;;;;;10.45;100.00;102138.63;5053603;28;20051;-69
2021/10/11 00:10:00;;;;;;;23.65;8.55;;;;;;;10.44;100.00;102142.25;5055704;28;20049;-69
2021/10/11 00:12:28;;;;;;;22.48;8.70;;;;;;;10.57;100.00;102152.72;5058069;28;20039;-69
2021/10/11 00:14:56;;;;;;;18.33;7.22;;;;;;;10.55;100.00;102155.53;5054032;28;20451;-69
2021/10/11 00:17:23;;;;;;;18.38;6.97;;;;;;;10.64;100.00;102149.41;5054493;28;20343;-69
2021/10/11 00:19:53;;;;;;;23.90;9.23;;;;;;;10.72;100.00;102161.25;5054334;28;20094;-69
2021/10/11 00:22:22;;;;;;;20.52;8.23;;;;;;;10.76;100.00;102171.56;5054422;28;20490;-69
2021/10/11 00:24:50;;;;;;;24.25;7.55;;;;;;;10.73;100.00;102168.28;5055570;28;20575;-69
2021/10/11 00:27:18;;;;;;;21.85;8.35;;;;;;;10.71;100.00;102167.59;5051851;28;20067;-68
2021/10/11 00:29:46;;;;;;;18.60;8.25;;;;;;;10.78;100.00;102169.59;5055261;28;20366;-69
2021/10/11 00:32:14;;;;;;;14.55;6.82;;;;;;;10.63;100.00;102165.56;5053230;28;20452;-69
2021/10/11 00:34:43;;;;;;;16.98;6.90;;;;;;;10.73;100.00;102162.94;5052653;28;20040;-69
2021/10/11 00:37:12;;;;;;;19.42;5.90;;;;;;;10.74;100.00;102165.50;5059062;28;20073;-69
2021/10/11 00:39:40;;;;;;;16.05;6.63;;;;;;;10.79;100.00;102160.59;5050924;28;20259;-65
2021/10/11 00:42:08;;;;;;;19.92;6.15;;;;;;;11.01;100.00;102166.75;5055882;28;20036;-66
2021/10/11 00:44:35;;;;;;;17.63;6.05;;;;;;;10.98;100.00;102157.19;5050798;28;20044;-70
2021/10/11 00:47:04;;;;;;;14.52;5.68;;;;;;;10.98;100.00;102148.31;5052940;28;20437;-71
2021/10/11 00:49:32;;;;;;;9.35;4.28;;;;;;;11.05;100.00;102137.97;5052651;28;20060;-71
2021/10/11 00:52:00;;;;;;;8.27;3.83;;;;;;;11.14;100.00;102134.47;5051442;28;20349;-72
2021/10/11 00:54:30;;;;;;;11.05;4.63;;;;;;;11.22;100.00;102131.13;5056286;28;20044;-73
2021/10/11 00:56:58;;;;;;;5.90;3.65;;;;;;;11.29;100.00;102118.91;5053819;28;20495;-72
2021/10/11 00:59:26;;;;;;;7.35;3.30;;;;;;;11.20;100.00;102117.91;5053449;28;20090;-72
2021/10/11 01:01:54;;;;;;;10.85;3.65;;;;;;;11.27;100.00;102112.84;5053409;28;20044;-71
2021/10/11 01:04:22;;;;;;;7.93;4.25;;;;;;;11.26;100.00;102103.97;5054833;28;20363;-72
2021/10/11 01:06:51;;;;;;;7.65;3.58;;;;;;;11.19;100.00;102094.81;5053182;28;20047;-72
2021/10/11 01:09:19;;;;;;;8.27;3.42;;;;;;;11.18;100.00;102101.13;5052994;28;20041;-72
2021/10/11 01:11:50;;;;;;;10.00;4.32;;;;;;;11.24;100.00;102086.38;5052270;28;20036;-72
2021/10/11 01:14:19;;;;;;;9.88;3.13;;;;;;;11.23;100.00;102087.34;5053753;28;20324;-71
2021/10/11 01:16:47;;;;;;;12.20;3.35;;;;;;;11.13;100.00;102082.81;5053260;28;20384;-71
2021/10/11 01:19:16;;;;;;;6.70;2.90;;;;;;;11.14;100.00;102075.66;5053490;28;20045;-71
2021/10/11 01:21:45;;;;;;;8.98;3.40;;;;;;;11.13;100.00;102074.81;5056085;28;20072;-71
2021/10/11 01:24:13;;;;;;;12.75;3.53;;;;;;;11.13;100.00;102079.31;5052847;28;20048;-72
2021/10/11 01:26:43;;;;;;;11.80;3.72;;;;;;;11.10;100.00;102076.91;5056392;28;20037;-72
2021/10/11 01:29:12;;;;;;;9.30;3.30;;;;;;;11.05;100.00;102068.47;5050287;28;20054;-71
2021/10/11 01:31:42;;;;;;;6.18;3.45;;;;;;;11.00;100.00;102067.03;5051644;28;20040;-71
2021/10/11 01:34:11;;;;;;;10.38;3.47;;;;;;;10.98;100.00;102055.59;5055036;28;20128;-72
2021/10/11 01:36:39;;;;;;;7.22;3.20;;;;;;;10.94;100.00;102059.53;5055763;28;20044;-72
2021/10/11 01:39:10;;;;;;;9.70;3.47;;;;;;;10.93;100.00;102065.88;5055323;28;20041;-71
2021/10/11 01:41:38;;;;;;;6.10;2.80;;;;;;;10.85;100.00;102061.19;5062358;28;20056;-72
2021/10/11 01:44:07;;;;;;;9.23;2.90;;;;;;;10.83;100.00;102063.16;5057812;28;20329;-72
2021/10/11 01:46:35;;;;;;;12.10;4.65;;;;;;;10.78;100.00;102064.56;5059362;28;20052;-73
2021/10/11 01:49:04;;;;;;;9.43;3.60;;;;;;;10.68;100.00;102064.50;5057662;28;20037;-73
2021/10/11 01:51:32;;;;;;;11.32;4.30;;;;;;;10.63;100.00;102062.25;5057142;28;20049;-74
2021/10/11 01:54:00;;;;;;;6.32;3.90;;;;;;;10.58;100.00;102060.94;5057955;28;20396;-73
2021/10/11 01:56:29;;;;;;;15.82;4.22;;;;;;;10.59;100.00;102070.63;5057029;28;20124;-75
2021/10/11 01:58:59;;;;;;;10.82;3.83;;;;;;;10.51;100.00;102073.97;5055537;28;20041;-71
2021/10/11 02:01:27;;;;;;;7.43;3.40;;;;;;;10.38;100.00;102068.00;5058663;28;20441;-72
2021/10/11 02:03:55;;;;;;;12.73;5.47;;;;;;;10.28;100.00;102063.41;5059121;28;20067;-73
2021/10/11 02:06:23;;;;;;;15.93;4.82;;;;;;;10.28;100.00;102066.06;5057472;28;20044;-72
2021/10/11 02:08:51;;;;;;;15.07;4.07;;;;;;;10.23;100.00;102070.94;5056586;28;20044;-73
2021/10/11 02:11:19;;;;;;;9.07;3.75;;;;;;;10.16;100.00;102061.78;5052852;28;20060;-73
2021/10/11 02:13:48;;;;;;;8.98;3.55;;;;;;;10.18;100.00;102070.50;5056823;28;20118;-72
2021/10/11 02:16:16;;;;;;;12.45;4.40;;;;;;;10.08;100.00;102062.44;5057376;28;20076;-73
2021/10/11 02:18:44;;;;;;;17.73;4.40;;;;;;;10.10;100.00;102067.63;5054810;28;20044;-73
2021/10/11 02:21:12;;;;;;;8.95;3.78;;;;;;;10.06;100.00;102075.03;5060059;28;20043;-73
2021/10/11 02:23:40;;;;;;;13.32;3.80;;;;;;;10.02;100.00;102064.75;5059199;28;20041;-74
2021/10/11 02:26:07;;;;;;;11.88;3.80;;;;;;;10.17;100.00;102060.81;5058999;28;20040;-74
2021/10/11 02:28:35;;;;;;;10.27;3.65;;;;;;;10.11;100.00;102062.16;5057018;28;20380;-66
2021/10/11 02:31:05;;;;;;;15.45;3.97;;;;;;;10.16;100.00;102059.97;5057191;28;20102;-66
2021/10/11 02:33:33;;;;;;;11.68;3.78;;;;;;;10.21;100.00;102064.91;5058302;28;20040;-66
2021/10/11 02:36:01;;;;;;;12.82;3.90;;;;;;;10.20;100.00;102057.88;5058137;28;20053;-66
2021/10/11 02:38:29;;;;;;;13.07;3.95;;;;;;;10.10;100.00;102054.28;5060659;28;20044;-66
2021/10/11 02:40:57;;;;;;;9.07;3.72;;;;;;;10.11;100.00;102051.50;5053643;28;20479;-67
2021/10/11 02:43:25;;;;;;;14.05;3.97;;;;;;;10.08;100.00;102057.09;5059094;28;20080;-68
2021/10/11 02:45:53;;;;;;;9.95;3.47;;;;;;;10.07;100.00;102054.56;5057144;28;20399;-66
2021/10/11 02:48:22;;;;;;;12.90;4.18;;;;;;;10.04;100.00;102062.84;5053644;28;20413;-66
2021/10/11 02:50:50;;;;;;;15.20;3.65;;;;;;;9.93;100.00;102053.03;5057204;28;20036;-66
2021/10/11 02:53:18;;;;;;;8.95;3.63;;;;;;;9.90;100.00;102064.81;5058994;28;20041;-66
2021/10/11 02:55:46;;;;;;;11.80;3.50;;;;;;;9.90;100.00;102072.81;5053464;28;20044;-66
2021/10/11 02:58:14;;;;;;;8.93;3.97;;;;;;;9.88;100.00;102071.25;5055474;28;20048;-66
2021/10/11 03:00:42;;;;;;;14.43;3.85;;;;;;;9.78;100.00;102071.16;5053480;28;20048;-66
2021/10/11 03:03:10;;;;;;;11.93;4.40;;;;;;;9.77;100.00;102075.66;5056283;28;20037;-66
2021/10/11 03:05:39;;;;;;;9.23;4.68;;;;;;;9.73;100.00;102068.06;5056072;28;20057;-66
2021/10/11 03:08:07;;;;;;;12.38;3.97;;;;;;;9.65;100.00;102074.00;5057523;28;20051;-66
2021/10/11 03:10:36;;;;;;;11.38;4.97;;;;;;;9.75;100.00;102077.63;5057188;28;20152;-66
2021/10/11 03:13:04;;;;;;;7.32;4.15;;;;;;;9.61;100.00;102070.75;5055757;28;20040;-66
2021/10/11 03:15:32;;;;;;;13.60;3.63;;;;;;;9.47;100.00;102063.06;5057712;28;20051;-66
2021/10/11 03:18:00;;;;;;;11.05;3.88;;;;;;;9.50;100.00;102062.78;5237087;22;20041;-67
2021/10/11 03:20:28;;;;;;;9.77;4.15;;;;;;;9.33;100.00;102050.84;5039168;28;20435;-67
2021/10/11 03:22:57;;;;;;;8.80;4.15;;;;;;;9.46;100.00;102053.34;5039572;28;20099;-67
2021/10/11 03:25:25;;;;;;;8.50;3.38;;;;;;;9.36;100.00;102050.59;5039627;28;20067;-67
2021/10/11 03:27:53;;;;;;;8.25;4.07;;;;;;;9.33;100.00;102057.97;5040336;28;20372;-67
2021/10/11 03:30:21;;;;;;;8.02;3.70;;;;;;;9.22;100.00;102054.38;5043233;28;20056;-67
2021/10/11 03:32:49;;;;;;;12.75;4.88;;;;;;;9.19;100.00;102065.28;5037766;28;20412;-67
2021/10/11 03:35:17;;;;;;;8.32;3.55;;;;;;;9.13;100.00;102068.44;5042042;28;20056;-68
2021/10/11 03:37:45;;;;;;;8.35;3.38;;;;;;;9.17;100.00;102064.56;5038218;28;20946;-68
2021/10/11 03:40:15;;;;;;;10.27;4.13;;;;;;;9.10;100.00;102058.00;5035722;28;20073;-68
2021/10/11 03:42:43;;;;;;;9.73;4.00;;;;;;;9.02;100.00;102052.47;5038822;28;20044;-67
2021/10/11 03:45:11;;;;;;;8.48;3.58;;;;;;;8.95;100.00;102050.28;5038096;28;20044;-68
2021/10/11 03:47:40;;;;;;;10.77;3.65;;;;;;;8.95;100.00;102052.94;5036312;28;20102;-67
2021/10/11 03:50:09;;;;;;;9.05;3.55;;;;;;;8.89;100.00;102056.09;5039988;28;20111;-67
2021/10/11 03:52:37;;;;;;;11.45;4.63;;;;;;;8.80;100.00;102056.81;5039310;28;20033;-67
2021/10/11 03:55:08;;;;;;;10.07;4.05;;;;;;;8.78;100.00;102048.13;5042784;28;20461;-67
2021/10/11 03:57:37;;;;;;;14.30;5.03;;;;;;;8.85;100.00;102051.97;5036480;28;20445;-67
2021/10/11 04:00:07;;;;;;;13.10;3.67;;;;;;;8.79;100.00;102057.81;5037486;28;20523;-67
2021/10/11 04:02:40;;;;;;;12.98;3.83;;;;;;;8.70;100.00;102051.38;5036840;28;20076;-67
2021/10/11 04:05:09;;;;;;;8.98;3.63;;;;;;;8.66;100.00;102054.41;5038268;28;20060;-67
2021/10/11 04:07:39;;;;;;;9.07;3.85;;;;;;;8.68;100.00;102055.16;5035949;28;20053;-67
2021/10/11 04:10:09;;;;;;;10.23;3.40;;;;;;;8.71;100.00;102054.91;5037879;28;20079;-67
2021/10/11 04:12:39;;;;;;;16.90;3.97;;;;;;;8.63;100.00;102057.31;5037158;28;20127;-67
2021/10/11 04:15:08;;;;;;;11.23;3.90;;;;;;;8.54;100.00;102065.03;5038868;28;20086;-67
2021/10/11 04:17:38;;;;;;;9.88;3.53;;;;;;;8.57;100.00;102063.97;5029808;28;20479;-67
2021/10/11 04:20:07;;;;;;;9.65;3.35;;;;;;;8.48;100.00;102054.00;5030398;28;20053;-67
2021/10/11 04:22:35;;;;;;;8.68;3.47;;;;;;;8.51;100.00;102056.47;5035351;28;20069;-67
2021/10/11 04:25:04;;;;;;;8.40;3.42;;;;;;;8.46;100.00;102056.78;5034655;28;20049;-70
2021/10/11 04:27:32;;;;;;;9.45;3.50;;;;;;;8.58;100.00;102055.00;5038573;28;20052;-70
2021/10/11 04:30:01;;;;;;;7.20;3.03;;;;;;;8.66;100.00;102057.06;5039828;28;20357;-70
2021/10/11 04:32:29;;;;;;;8.85;3.22;;;;;;;8.63;100.00;102051.97;5036340;28;21213;-71
2021/10/11 04:34:57;;;;;;;10.63;3.60;;;;;;;8.41;100.00;102048.31;5039748;28;20045;-70
2021/10/11 04:37:25;;;;;;;9.55;3.55;;;;;;;8.23;100.00;102051.41;5037696;28;20049;-71
2021/10/11 04:39:53;;;;;;;9.30;2.90;;;;;;;8.04;100.00;102051.97;5034925;28;20037;-70
2021/10/11 04:42:21;;;;;;;9.98;3.38;;;;;;;8.01;100.00;102056.66;5036127;28;20429;-70
2021/10/11 04:44:49;;;;;;;8.90;3.28;;;;;;;8.24;100.00;102058.44;5037742;28;20049;-70
2021/10/11 04:47:19;;;;;;;7.10;2.78;;;;;;;7.97;100.00;102064.03;5040715;28;20384;-70
2021/10/11 04:49:50;;;;;;;10.65;4.20;;;;;;;8.06;100.00;102067.81;5036335;28;20045;-70
2021/10/11 04:52:18;;;;;;;11.57;3.00;;;;;;;7.93;100.00;102065.22;5041168;28;20318;-70
2021/10/11 04:54:46;;;;;;;6.43;2.75;;;;;;;7.93;100.00;102084.69;5038567;28;20356;-70
2021/10/11 04:57:14;;;;;;;16.70;3.45;;;;;;;7.83;100.00;102086.34;5034814;28;20110;-70
2021/10/11 04:59:42;;;;;;;7.68;3.53;;;;;;;7.81;100.00;102088.28;5036399;28;20045;-70
2021/10/11 05:02:09;;;;;;;8.30;3.20;;;;;;;7.97;100.00;102081.78;5036432;28;20056;-70
2021/10/11 05:04:39;;;;;;;10.32;3.53;;;;;;;7.92;100.00;102091.00;5035450;28;20041;-70
2021/10/11 05:07:07;;;;;;;5.93;3.03;;;;;;;7.89;100.00;102071.75;5034936;28;20041;-70
2021/10/11 05:09:35;;;;;;;9.25;3.05;;;;;;;7.88;100.00;102072.69;5028122;28;20048;-70
2021/10/11 05:12:03;;;;;;;7.07;3.63;;;;;;;7.97;100.00;102076.47;5036413;28;20037;-70
2021/10/11 05:14:31;;;;;;;10.60;3.10;;;;;;;7.86;100.00;102086.09;5032515;28;20352;-70
2021/10/11 05:16:59;;;;;;;12.85;3.33;;;;;;;7.92;100.00;102082.13;5032638;28;20305;-70
2021/10/11 05:19:27;;;;;;;8.23;2.80;;;;;;;7.93;100.00;102083.84;5037934;28;20428;-70
2021/10/11 05:21:57;;;;;;;9.63;3.17;;;;;;;7.83;100.00;102080.19;5037386;28;20057;-70
2021/10/11 05:24:25;;;;;;;10.05;3.13;;;;;;;7.91;100.00;102077.81;5037243;28;20044;-70
2021/10/11 05:26:54;;;;;;;10.15;2.70;;;;;;;7.86;100.00;102091.44;5038046;28;20041;-70
2021/10/11 05:29:23;;;;;;;9.98;2.63;;;;;;;7.79;100.00;102084.03;5028892;28;20049;-70
2021/10/11 05:31:51;;;;;;;11.20;2.72;;;;;;;7.82;100.00;102079.31;5034719;28;20057;-70
2021/10/11 05:34:19;;;;;;;8.20;2.90;;;;;;;7.85;100.00;102075.59;5032167;28;20111;-70
2021/10/11 05:36:48;;;;;;;6.43;2.90;;;;;;;7.68;100.00;102080.38;5034245;28;20388;-70
2021/10/11 05:39:17;;;;;;;9.90;2.60;;;;;;;7.51;100.00;102081.59;5035599;28;20087;-70
2021/10/11 05:41:45;;;;;;;9.98;2.95;;;;;;;7.37;100.00;102089.72;5032594;28;21507;-71
2021/10/11 05:44:13;;;;;;;8.60;3.08;;;;;;;7.21;100.00;102096.13;5037612;28;20494;-70
2021/10/11 05:46:40;;;;;;;8.13;2.97;;;;;;;7.17;100.00;102089.34;5036295;28;20041;-71
2021/10/11 05:49:11;;;;;;;8.05;3.08;;;;;;;7.13;100.00;102079.03;5034173;28;20045;-70
2021/10/11 05:51:39;;;;;;;8.70;3.00;;;;;;;6.92;100.00;102092.03;5035892;28;20037;-70
2021/10/11 05:54:07;;;;;;;9.20;3.63;;;;;;;7.29;100.00;102092.09;5035437;28;20033;-70
2021/10/11 05:56:36;;;;;;;11.27;3.53;;;;;;;7.10;100.00;102073.94;5039283;28;20314;-70
2021/10/11 05:59:04;;;;;;;9.45;3.97;;;;;;;7.14;100.00;102089.56;5038242;28;20049;-70
2021/10/11 06:01:32;;;;;;;10.82;3.47;;;;;;;6.95;100.00;102091.84;5038653;28;20489;-70
2021/10/11 06:04:00;;;;;;;16.45;3.72;;;;;;;6.91;100.00;102093.84;5035330;28;20364;-70
2021/10/11 06:06:28;;;;;;;13.13;4.07;;;;;;;6.87;100.00;102101.16;5034837;28;20055;-70
2021/10/11 06:08:56;;;;;;;22.20;4.88;;;;;;;6.86;100.00;102114.56;5035330;28;20122;-70
2021/10/11 06:11:24;;;;;;;10.93;3.97;;;;;;;6.78;100.00;102109.78;5038422;28;20515;-70
2021/10/11 06:13:53;;;;;;;16.75;4.85;;;;;;;6.82;100.00;102115.72;5035033;28;20048;-70
2021/10/11 06:16:21;;;;;;;12.27;3.85;;;;;;;6.72;100.00;102123.50;5038804;28;20052;-70
2021/10/11 06:18:49;;;;;;;13.05;4.43;;;;;;;6.68;100.00;102132.63;5032576;28;20432;-70
2021/10/11 06:21:17;;;;;;;20.42;4.63;;;;;;;7.08;100.00;102137.81;5036118;28;20060;-70
2021/10/11 06:23:46;;;;;;;22.95;5.28;;;;;;;6.89;100.00;102152.38;5042675;28;20262;-69
2021/10/11 06:26:14;;;;;;;16.33;5.00;;;;;;;6.89;100.00;102160.34;5038738;28;20041;-70
2021/10/11 06:28:42;;;;;;;13.90;5.10;;;;;;;6.77;100.00;102178.94;5038596;28;20111;-71
2021/10/11 06:31:11;;;;;;;17.77;5.97;;;;;;;6.59;100.00;102176.59;5041195;28;20580;-71
2021/10/11 06:33:39;;;;;;;13.38;5.50;;;;;;;6.64;100.00;102174.47;5038410;28;20041;-68
2021/10/11 06:36:07;;;;;;;13.82;4.95;;;;;;;6.67;100.00;102181.38;5039670;28;20072;-71
2021/10/11 06:38:35;;;;;;;12.13;5.75;;;;;;;6.71;100.00;102172.25;5034257;28;20436;-71
2021/10/11 06:41:04;;;;;;;15.43;4.38;;;;;;;6.72;100.00;102165.97;5040618;28;20048;-71
2021/10/11 06:43:32;;;;;;;19.20;4.88;;;;;;;6.82;100.00;102169.69;5039584;28;20041;-72
2021/10/11 06:46:00;;;;;;;11.93;4.95;;;;;;;6.86;100.00;102173.84;5037371;28;20384;-73
2021/10/11 06:48:29;;;;;;;14.02;5.50;;;;;;;6.88;100.00;102177.22;5043269;28;20053;-72
2021/10/11 06:50:57;;;;;;;22.30;5.90;;;;;;;6.98;100.00;102179.28;5040494;28;20049;-72
2021/10/11 06:53:25;;;;;;;15.07;4.50;;;;;;;7.12;100.00;102186.28;5039287;28;20044;-71
2021/10/11 06:55:53;;;;;;;16.65;5.30;;;;;;;7.18;100.00;102192.00;5040323;28;20718;-71
2021/10/11 06:58:21;;;;;;;19.70;6.10;;;;;;;7.04;100.00;102192.13;5038430;28;20044;-72
2021/10/11 07:00:49;;;;;;;19.90;6.47;;;;;;;7.02;100.00;102202.00;5039877;28;20040;-71
2021/10/11 07:03:23;;;;;;;15.25;6.40;;;;;;;7.12;100.00;102197.75;5041407;28;20153;-71
2021/10/11 07:05:56;;;;;;;23.35;7.63;;;;;;;7.18;100.00;102194.66;5040492;28;20044;-72
2021/10/11 07:08:24;;;;;;;21.42;7.70;;;;;;;7.22;100.00;102204.13;5045455;28;20037;-71
2021/10/11 07:10:54;;;;;;;22.15;9.07;;;;;;;7.28;100.00;102196.69;5039553;28;20045;-71
2021/10/11 07:13:23;;;;;;;24.08;8.90;;;;;;;7.40;100.00;102201.13;5037733;28;20048;-70
2021/10/11 07:15:51;;;;;;;20.95;8.63;;;;;;;7.56;100.00;102209.72;5037499;28;20360;-70
2021/10/11 07:18:21;;;;;;;18.38;6.65;;;;;;;7.98;100.00;102200.53;5036342;28;20050;-70
2021/10/11 07:20:49;;;;;;;21.15;7.05;;;;;;;8.40;100.00;102195.66;5038478;28;20044;-71
2021/10/11 07:23:18;;;;;;;13.18;6.50;;;;;;;8.57;100.00;102189.09;5038757;28;20054;-71
2021/10/11 07:25:46;;;;;;;20.65;6.70;;;;;;;8.76;100.00;102180.53;5038211;28;20060;-71
2021/10/11 07:28:14;;;;;;;17.05;5.68;;;;;;;8.85;100.00;102173.69;5040622;28;20076;-72
2021/10/11 07:30:42;;;;;;;14.27;6.07;;;;;;;8.86;100.00;102180.69;5032210;28;20072;-70
2021/10/11 07:33:09;;;;;;;20.10;5.90;;;;;;;8.91;100.00;102173.19;5038469;28;20049;-70
2021/10/11 07:35:39;;;;;;;28.02;7.50;;;;;;;8.87;100.00;102182.41;5038709;28;20631;-70
2021/10/11 07:38:08;;;;;;;17.80;6.60;;;;;;;8.89;100.00;102167.16;5038220;28;20033;-70
2021/10/11 07:40:50;;;;;;;15.25;5.20;;;;;;;9.01;100.00;102176.00;5038910;28;20501;-70
2021/10/11 07:43:18;;;;;;;10.32;5.30;;;;;;;8.99;100.00;102175.25;5037443;28;20053;-70
2021/10/11 07:45:46;;;;;;;14.63;4.72;;;;;;;9.01;100.00;102184.00;5035867;28;20049;-70
2021/10/11 07:48:15;;;;;;;11.98;4.90;;;;;;;9.21;100.00;102175.28;5037880;28;20087;-70
2021/10/11 07:50:43;;;;;;;11.77;4.72;;;;;;;9.19;100.00;102179.06;5037763;28;20044;-70
2021/10/11 07:53:13;;;;;;;13.98;4.68;;;;;;;9.41;100.00;102175.50;5041767;28;20052;-70
2021/10/11 07:55:42;;;;;;;9.63;4.60;;;;;;;9.61;100.00;102172.09;5039360;28;20037;-70
2021/10/11 07:58:11;;;;;;;13.95;4.85;;;;;;;9.57;100.00;102162.66;5038542;28;20103;-70
2021/10/11 08:00:40;;;;;;;10.77;4.68;;;;;;;9.74;100.00;102155.09;5040908;28;20045;-70
2021/10/11 08:03:08;;;;;;;12.13;4.53;;;;;;;9.86;100.00;102146.09;5038112;28;20099;-70
2021/10/11 08:05:37;;;;;;;10.45;4.05;;;;;;;10.02;100.00;102145.66;5036316;28;20045;-72
2021/10/11 08:08:05;;;;;;;7.50;3.40;;;;;;;10.09;100.00;102146.00;5039413;28;20053;-70
2021/10/11 08:10:34;;;;;;;8.98;3.90;;;;;;;10.27;100.00;102147.13;5038969;28;20044;-70
2021/10/11 08:13:03;;;;;;;8.05;3.92;;;;;;;10.23;100.00;102158.22;5043011;28;20041;-70
2021/10/11 08:15:32;;;;;;;11.00;4.28;;;;;;;10.13;100.00;102152.78;5038592;28;20345;-71
2021/10/11 08:18:00;;;;;;;8.98;3.47;;;;;;;10.10;100.00;102150.38;5036111;28;20048;-70
2021/10/11 08:20:29;;;;;;;14.68;4.40;;;;;;;10.20;100.00;102150.47;5038880;28;20472;-70
2021/10/11 08:22:57;;;;;;;7.10;4.03;;;;;;;10.35;100.00;102143.88;5038646;28;20049;-70
2021/10/11 08:25:24;;;;;;;9.02;4.65;;;;;;;10.50;100.00;102149.72;5032945;28;20044;-67
2021/10/11 08:27:52;;;;;;;10.35;4.38;;;;;;;10.76;100.00;102152.88;5036955;28;20056;-67
2021/10/11 08:30:20;;;;;;;7.88;3.90;;;;;;;10.61;100.00;102156.84;5035507;28;20044;-70
2021/10/11 08:32:50;;;;;;;10.13;4.68;;;;;;;10.56;100.00;102164.38;5037218;28;20377;-70
2021/10/11 08:35:18;;;;;;;13.48;4.38;;;;;;;10.86;100.00;102158.25;5041271;28;20440;-70
2021/10/11 08:37:46;;;;;;;9.90;4.95;;;;;;;10.96;100.00;102171.69;5035133;28;20309;-72
2021/10/11 08:40:15;;;;;;;11.65;4.25;;;;;;;11.10;100.00;102183.81;5038060;28;20124;-72
2021/10/11 08:42:43;;;;;;;9.35;4.20;;;;;;;11.11;100.00;102182.84;5036486;28;20068;-72
2021/10/11 08:45:11;;;;;;;10.82;4.43;;;;;;;11.15;100.00;102173.59;5039573;28;20045;-71
2021/10/11 08:47:39;;;;;;;10.57;4.35;;;;;;;11.57;100.00;102172.59;5035883;28;20325;-71
2021/10/11 08:50:11;;;;;;;10.00;4.35;;;;;;;11.70;100.00;102171.38;5036905;28;20095;-71
2021/10/11 08:52:39;;;;;;;8.02;4.63;;;;;;;12.01;100.00;102175.84;5039492;28;20095;-70
2021/10/11 08:55:08;;;;;;;10.75;4.85;;;;;;;12.34;100.00;102166.53;5039408;28;20094;-73
2021/10/11 08:57:36;;;;;;;8.90;3.38;;;;;;;12.58;100.00;102167.94;5039990;28;20571;-72
2021/10/11 09:00:09;;;;;;;8.07;4.47;;;;;;;12.52;100.00;102180.06;5040763;28;20436;-73
2021/10/11 09:02:44;;;;;;;16.92;4.25;;;;;;;12.39;100.00;102187.56;5031810;28;20375;-73
2021/10/11 09:05:22;;;;;;;9.85;4.20;;;;;;;12.52;100.00;102190.78;5040520;28;20117;-72
2021/10/11 09:07:59;;;;;;;9.80;3.97;;;;;;;12.93;100.00;102193.25;5036507;28;20056;-72
2021/10/11 09:10:28;;;;;;;14.02;3.92;;;;;;;13.59;100.00;102184.28;5035412;28;20052;-72
2021/10/11 09:12:58;;;;;;;11.75;4.30;;;;;;;13.56;100.00;102189.91;5037106;28;20056;-72
2021/10/11 09:15:29;;;;;;;8.75;4.28;;;;;;;13.20;100.00;102197.00;5034141;28;20030;-73
2021/10/11 09:18:01;;;;;;;11.68;3.95;;;;;;;13.47;100.00;102198.00;5034513;28;20053;-72
2021/10/11 09:20:30;;;;;;;9.27;4.20;;;;;;;13.46;100.00;102199.03;5038577;28;20053;-73
2021/10/11 09:23:01;;;;;;;5.43;3.20;;;;;;;13.83;100.00;102185.53;5036985;28;20208;-72
2021/10/11 09:25:36;;;;;;;7.38;3.53;;;;;;;14.22;100.00;102192.47;5040525;28;20396;-73
2021/10/11 09:28:06;;;;;;;13.60;4.65;;;;;;;13.44;100.00;102191.13;5033933;28;20303;-72
2021/10/11 09:30:38;;;;;;;11.23;4.18;;;;;;;13.47;100.00;102188.13;5035070;28;20404;-71
2021/10/11 09:33:07;;;;;;;11.40;5.18;;;;;;;13.49;100.00;102188.81;5036520;28;20143;-73
2021/10/11 09:35:38;;;;;;;12.48;3.75;;;;;;;13.78;100.00;102185.97;5035208;28;20037;-72
2021/10/11 09:38:20;;;;;;;7.60;3.53;;;;;;;14.34;100.00;102185.84;5037545;28;20136;-73
2021/10/11 09:40:48;;;;;;;14.38;4.78;;;;;;;14.05;100.00;102192.31;5037833;28;20049;-73
2021/10/11 09:43:18;;;;;;;10.88;3.55;;;;;;;14.05;100.00;102184.25;5032752;28;20048;-73
2021/10/11 09:45:46;;;;;;;11.82;5.00;;;;;;;13.93;100.00;102180.94;5036594;28;20033;-73
2021/10/11 09:48:15;;;;;;;8.00;4.72;;;;;;;14.02;100.00;102186.38;5034329;28;20072;-72
2021/10/11 09:50:44;;;;;;;11.20;4.45;;;;;;;14.37;100.00;102190.06;5032383;28;20056;-72
2021/10/11 09:53:14;;;;;;;5.53;3.50;;;;;;;13.88;100.00;102177.88;5036992;28;20040;-72
2021/10/11 09:55:44;;;;;;;11.32;5.15;;;;;;;13.88;100.00;102185.91;5042184;28;20214;-72
2021/10/11 09:58:12;;;;;;;9.55;3.78;;;;;;;13.50;100.00;102195.06;5041848;28;20045;-71
2021/10/11 10:00:42;;;;;;;6.80;3.50;;;;;;;13.70;100.00;102196.63;5045384;28;20052;-72
2021/10/11 10:03:12;;;;;;;10.15;3.53;;;;;;;13.94;100.00;102195.22;5041144;28;20136;-72
2021/10/11 10:05:45;;;;;;;11.00;3.20;;;;;;;13.77;100.00;102194.19;5043602;28;20044;-71
2021/10/11 10:08:16;;;;;;;11.20;4.60;;;;;;;13.60;100.00;102195.84;5043886;28;20041;-71
2021/10/11 10:10:48;;;;;;;11.45;2.80;;;;;;;13.60;100.00;102196.66;5042728;28;20045;-71
2021/10/11 10:13:18;;;;;;;7.88;2.42;;;;;;;13.55;100.00;102201.66;5043563;28;20052;-72
2021/10/11 10:15:46;;;;;;;8.45;2.55;;;;;;;13.76;100.00;102201.41;5043433;28;20065;-71
2021/10/11 10:18:16;;;;;;;7.90;2.58;;;;;;;14.71;100.00;102200.13;5041894;28;20083;-72
2021/10/11 10:20:53;;;;;;;6.00;2.53;;;;;;;15.00;100.00;102202.50;5043073;28;20622;-72
2021/10/11 10:23:27;;;;;;;15.20;4.72;;;;;;;14.21;100.00;102207.72;5042899;28;20044;-71
2021/10/11 10:25:56;;;;;;;8.63;2.17;;;;;;;14.04;100.00;102209.41;5045135;28;20456;-71
2021/10/11 10:28:24;;;;;;;7.32;2.63;;;;;;;13.93;100.00;102212.31;5038168;28;20045;-71
2021/10/11 10:30:57;;;;;;;8.18;2.58;;;;;;;13.82;100.00;102209.84;5037656;28;20053;-71
2021/10/11 10:33:34;;;;;;;4.97;1.92;;;;;;;13.92;100.00;102203.41;5040316;28;20045;-72
2021/10/11 10:36:05;;;;;;;6.15;1.67;;;;;;;13.90;100.00;102207.25;5039802;28;20389;-72
2021/10/11 10:38:33;;;;;;;7.78;2.40;;;;;;;13.80;100.00;102204.63;5041166;28;20052;-72
2021/10/11 10:41:01;;;;;;;12.00;2.03;;;;;;;13.57;100.00;102199.66;5041030;28;20056;-71
2021/10/11 10:43:39;;;;;;;6.25;1.80;;;;;;;13.63;100.00;102203.59;5044092;28;20052;-71
2021/10/11 10:46:11;;;;;;;8.90;2.83;;;;;;;13.47;100.00;102201.56;5042125;28;20044;-71
2021/10/11 10:48:48;;;;;;;9.40;2.63;;;;;;;13.40;100.00;102193.25;5035805;28;20479;-71
2021/10/11 10:51:18;;;;;;;8.75;2.20;;;;;;;13.40;100.00;102201.28;5042181;28;20858;-71
2021/10/11 10:53:53;;;;;;;7.07;2.15;;;;;;;13.38;100.00;102211.34;5040346;28;20439;-70
2021/10/11 10:56:21;;;;;;;;;;;;;;;13.51;100.00;102212.81;5043516;28;20042;-70
2021/10/11 10:58:50;;;;;;;6.38;2.25;;;;;;;13.44;100.00;102207.22;5040294;28;19928;-71
2021/10/11 11:01:25;;;;;;;6.82;2.28;;;;;;;13.31;100.00;102204.84;5041894;28;20066;-71
2021/10/11 11:03:55;;;;;;;7.88;2.17;;;;;;;13.56;100.00;102211.38;5038812;28;20076;-71
2021/10/11 11:06:40;;;;;;;7.72;2.33;;;;;;;13.74;100.00;102207.91;5042675;28;20045;-71
2021/10/11 11:09:08;;;;;;;8.20;2.30;;;;;;;13.60;100.00;102211.94;5039865;28;20049;-70
2021/10/11 11:11:36;;;;;;;14.45;5.30;;;;;;;13.72;100.00;102216.13;5043997;28;20049;-71
2021/10/11 11:14:04;;;;;;;9.43;4.07;;;;;;;13.87;100.00;102212.94;5041453;28;20064;-71
2021/10/11 11:16:32;;;;;;;11.57;2.42;;;;;;;13.90;100.00;102212.63;5040672;28;20049;-71
2021/10/11 11:19:00;;;;;;;7.32;2.17;;;;;;;13.45;100.00;102208.06;5040089;28;20966;-71
2021/10/11 11:21:28;;;;;;;10.63;2.85;;;;;;;13.74;100.00;102208.75;5042473;28;20037;-71
2021/10/11 11:23:58;;;;;;;8.23;2.55;;;;;;;13.61;100.00;102200.22;5043955;28;20510;-72